Time;durP1;ratioP1;P1;durP2;ratioP2;P2;SDS_P1;SDS_P2;PMS_P1;PMS_P2;Temp;Humidity;BMP_temperature;BMP_pressure;BME280_temperature;BME280_humidity;BME280_pressure;Samples;Min_cycle;Max_cycle;Signal;HPM_P1;HPM_P2
2023/07/22 00:00:58;;;;;;;8.43;2.13;;;;;;;10.46;60.48;101135.63;4944047;28;20079;-73
2023/07/22 00:03:24;;;;;;;5.07;2.42;;;;;;;10.84;59.41;101142.16;4944277;28;20043;-73
2023/07/22 00:06:03;;;;;;;7.15;2.78;;;;;;;10.84;60.25;101139.53;4963186;28;20122;-71
2023/07/22 00:08:28;;;;;;;4.47;2.53;;;;;;;10.87;59.70;101136.81;4960496;28;20080;-71
2023/07/22 00:10:54;;;;;;;9.35;2.53;;;;;;;10.81;60.15;101131.75;4948547;28;20516;-72
2023/07/22 00:13:20;;;;;;;6.95;3.20;;;;;;;11.00;59.62;101131.97;4964321;28;20038;-71
2023/07/22 00:15:45;;;;;;;8.30;3.22;;;;;;;10.66;60.32;101138.41;4966973;28;20129;-71
2023/07/22 00:18:10;;;;;;;6.85;3.00;;;;;;;10.64;60.27;101135.84;4950272;28;20046;-70
2023/07/22 00:20:38;;;;;;;6.70;2.97;;;;;;;10.85;59.79;101138.63;4967301;28;20023;-71
2023/07/22 00:23:04;;;;;;;5.78;2.78;;;;;;;11.04;59.37;101139.66;4965173;28;20409;-71
2023/07/22 00:25:29;;;;;;;7.72;2.50;;;;;;;10.88;59.50;101138.50;4950135;28;20040;-71
2023/07/22 00:27:56;;;;;;;10.82;3.35;;;;;;;10.72;60.03;101135.56;4965845;28;20042;-71
2023/07/22 00:30:22;;;;;;;7.38;2.65;;;;;;;10.90;59.46;101138.44;4964614;28;20081;-70
2023/07/22 00:32:48;;;;;;;6.95;2.80;;;;;;;10.80;59.43;101136.13;4963288;28;20042;-71
2023/07/22 00:35:13;;;;;;;13.55;3.78;;;;;;;10.42;60.45;101135.75;4965990;28;21084;-71
2023/07/22 00:37:39;;;;;;;7.43;3.40;;;;;;;10.31;60.26;101139.66;4964988;28;20528;-71
2023/07/22 00:40:06;;;;;;;8.55;4.03;;;;;;;10.27;60.98;101138.06;4965672;28;20073;-72
2023/07/22 00:42:32;;;;;;;12.07;4.03;;;;;;;10.45;60.58;101139.19;4938518;28;20061;-72
2023/07/22 00:44:57;;;;;;;6.82;2.67;;;;;;;10.57;59.90;101139.59;4948296;28;20489;-71
2023/07/22 00:47:23;;;;;;;7.55;3.30;;;;;;;10.28;60.55;101137.13;4959616;28;20062;-71
2023/07/22 00:49:49;;;;;;;8.15;2.88;;;;;;;10.33;60.57;101140.47;4950439;28;20046;-68
2023/07/22 00:52:16;;;;;;;12.60;3.33;;;;;;;10.22;60.28;101138.22;4946860;28;20035;-70
2023/07/22 00:54:42;;;;;;;11.02;3.20;;;;;;;10.46;59.81;101138.25;4949899;28;20058;-70
2023/07/22 00:57:08;;;;;;;8.65;3.55;;;;;;;10.14;60.23;101141.06;4935216;28;20027;-69
2023/07/22 00:59:34;;;;;;;8.35;2.85;;;;;;;10.33;60.30;101138.69;4943200;28;20031;-69
2023/07/22 01:02:00;;;;;;;6.18;2.55;;;;;;;10.29;60.09;101131.88;4931952;28;20027;-68
2023/07/22 01:04:25;;;;;;;5.07;2.55;;;;;;;10.45;59.69;101128.72;4964315;28;20026;-69
2023/07/22 01:06:52;;;;;;;7.88;2.65;;;;;;;10.33;60.06;101130.00;4958054;28;20034;-69
2023/07/22 01:09:18;;;;;;;5.22;2.17;;;;;;;10.19;60.38;101126.13;4957814;28;20156;-68
2023/07/22 01:11:44;;;;;;;11.32;3.58;;;;;;;10.15;60.44;101126.28;4966485;28;20057;-69
2023/07/22 01:14:10;;;;;;;7.05;2.97;;;;;;;10.35;59.81;101120.38;4962716;28;20043;-68
2023/07/22 01:16:36;;;;;;;7.13;2.80;;;;;;;10.36;59.71;101130.75;4979487;28;20026;-68
2023/07/22 01:19:01;;;;;;;6.70;2.22;;;;;;;9.90;61.32;101127.09;4971309;28;20422;-70
2023/07/22 01:21:27;;;;;;;7.57;2.60;;;;;;;10.02;60.87;101125.84;4970322;28;20030;-74
2023/07/22 01:23:53;;;;;;;7.15;2.58;;;;;;;10.03;60.86;101127.53;4969720;28;20528;-68
2023/07/22 01:26:21;;;;;;;12.35;3.10;;;;;;;9.87;61.36;101121.97;4968892;28;20511;-69
2023/07/22 01:28:47;;;;;;;12.35;2.97;;;;;;;9.96;61.10;101124.25;4968085;28;20031;-70
2023/07/22 01:31:12;;;;;;;5.78;2.42;;;;;;;10.04;61.16;101123.19;4970782;28;20176;-69
2023/07/22 01:33:38;;;;;;;5.60;2.63;;;;;;;10.16;60.35;101120.97;4968525;28;20050;-72
2023/07/22 01:36:04;;;;;;;8.07;2.30;;;;;;;10.17;60.25;101130.53;4969992;28;20452;-71
2023/07/22 01:38:31;;;;;;;9.95;2.22;;;;;;;10.01;60.81;101126.72;4954498;28;20039;-72
2023/07/22 01:40:57;;;;;;;5.82;1.83;;;;;;;10.20;60.24;101129.56;4969210;28;20030;-71
2023/07/22 01:43:22;;;;;;;6.07;2.22;;;;;;;10.05;60.65;101130.94;4969488;28;20382;-71
2023/07/22 01:45:47;;;;;;;9.68;2.28;;;;;;;10.04;60.77;101129.25;4968848;28;20477;-73
2023/07/22 01:48:13;;;;;;;6.03;2.00;;;;;;;10.27;60.16;101132.84;4967911;28;20121;-72
2023/07/22 01:50:38;;;;;;;6.10;3.00;;;;;;;10.31;59.93;101129.22;4961057;28;20188;-72
2023/07/22 01:53:05;;;;;;;5.75;2.10;;;;;;;10.41;59.73;101130.56;4985531;28;20082;-72
2023/07/22 01:55:32;;;;;;;9.68;2.17;;;;;;;10.35;60.06;101144.72;4956139;28;20449;-70
2023/07/22 01:57:58;;;;;;;9.15;2.42;;;;;;;10.19;60.30;101139.19;4953133;28;20044;-70
2023/07/22 02:00:23;;;;;;;6.10;2.58;;;;;;;10.05;60.64;101144.00;4966436;28;20034;-70
2023/07/22 02:02:49;;;;;;;8.88;3.13;;;;;;;10.18;59.99;101152.28;4969857;28;20422;-71
2023/07/22 02:05:14;;;;;;;8.50;2.30;;;;;;;10.16;60.10;101147.09;4967475;28;20034;-73
2023/07/22 02:07:42;;;;;;;4.55;2.10;;;;;;;10.00;60.32;101153.75;4952594;28;20615;-71
2023/07/22 02:10:09;;;;;;;4.32;2.10;;;;;;;10.05;60.17;101151.84;4972550;28;20153;-71
2023/07/22 02:12:35;;;;;;;6.78;1.85;;;;;;;9.99;60.40;101152.03;4962569;28;20046;-74
2023/07/22 02:15:02;;;;;;;7.88;2.13;;;;;;;9.76;60.87;101145.78;4970456;28;20105;-72
2023/07/22 02:17:28;;;;;;;3.95;1.38;;;;;;;9.96;60.16;101152.16;4965724;28;20057;-71
2023/07/22 02:19:53;;;;;;;11.13;2.50;;;;;;;9.96;60.34;101155.59;4967095;28;20035;-69
2023/07/22 02:22:19;;;;;;;5.10;2.20;;;;;;;9.98;60.26;101156.41;4964809;28;20072;-69
2023/07/22 02:24:44;;;;;;;10.43;2.22;;;;;;;9.76;60.48;101156.22;4950239;28;20061;-68
2023/07/22 02:27:10;;;;;;;8.02;2.28;;;;;;;9.89;60.02;101155.88;4966596;28;20064;-69
2023/07/22 02:29:36;;;;;;;5.68;2.20;;;;;;;9.87;59.82;101158.50;4966521;28;20030;-69
2023/07/22 02:32:02;;;;;;;6.95;1.95;;;;;;;9.85;59.78;101165.53;4943516;28;20537;-69
2023/07/22 02:34:27;;;;;;;4.93;2.35;;;;;;;9.93;59.69;101165.31;4952380;28;20334;-69
2023/07/22 02:36:53;;;;;;;4.63;2.40;;;;;;;9.62;60.78;101168.88;4965922;28;20318;-69
2023/07/22 02:39:18;;;;;;;5.68;2.13;;;;;;;9.77;59.93;101163.16;4967985;28;20100;-69
2023/07/22 02:41:44;;;;;;;9.52;1.95;;;;;;;9.73;59.88;101156.31;4953374;28;20129;-69
2023/07/22 02:44:09;;;;;;;6.70;1.65;;;;;;;9.79;59.87;101165.72;4969487;28;20057;-68
2023/07/22 02:46:35;;;;;;;4.47;1.85;;;;;;;9.83;59.41;101156.06;4966462;28;20035;-68
2023/07/22 02:49:00;;;;;;;4.55;1.92;;;;;;;9.76;59.46;101161.44;4949980;28;20049;-69
2023/07/22 02:51:26;;;;;;;5.82;1.63;;;;;;;9.73;59.28;101160.69;4967521;28;20041;-66
2023/07/22 02:53:51;;;;;;;4.90;1.63;;;;;;;9.71;59.64;101154.66;4965899;28;20064;-66
2023/07/22 02:56:17;;;;;;;7.53;1.63;;;;;;;9.74;59.58;101158.00;4962950;28;20122;-65
2023/07/22 02:58:43;;;;;;;7.10;1.70;;;;;;;9.57;59.62;101161.19;4967268;28;20504;-66
2023/07/22 03:01:10;;;;;;;5.97;1.70;;;;;;;9.63;59.51;101161.88;4968756;28;20058;-65
2023/07/22 03:03:36;;;;;;;4.15;1.70;;;;;;;9.57;59.74;101162.94;4961600;28;20510;-67
2023/07/22 03:06:03;;;;;;;3.15;1.60;;;;;;;9.53;59.62;101163.94;4965588;28;21884;-67
2023/07/22 03:08:29;;;;;;;5.78;1.15;;;;;;;9.67;59.34;101166.94;4944131;28;20271;-68
2023/07/22 03:10:55;;;;;;;4.78;1.60;;;;;;;9.57;59.06;101170.78;4969590;28;20041;-70
2023/07/22 03:13:20;;;;;;;8.80;1.98;;;;;;;9.40;59.90;101168.66;4966131;28;20257;-71
2023/07/22 03:15:46;;;;;;;6.57;1.45;;;;;;;9.26;60.05;101171.69;4954039;28;20452;-69
2023/07/22 03:18:11;;;;;;;3.60;1.30;;;;;;;9.35;60.01;101166.19;4970494;28;20034;-68
2023/07/22 03:20:38;;;;;;;7.57;1.95;;;;;;;9.27;60.11;101172.53;4966457;28;20069;-69
2023/07/22 03:23:06;;;;;;;6.25;2.45;;;;;;;9.48;59.56;101165.84;4970562;28;20418;-68
2023/07/22 03:25:33;;;;;;;2.13;0.82;;;;;;;9.60;58.89;101175.88;4964332;28;20100;-69
2023/07/22 03:28:03;;;;;;;3.95;1.75;;;;;;;9.56;58.96;101182.09;4968542;28;20057;-70
2023/07/22 03:30:29;;;;;;;5.30;1.20;;;;;;;9.57;59.04;101176.00;4965827;28;20030;-69
2023/07/22 03:32:55;;;;;;;4.15;1.20;;;;;;;9.58;58.75;101173.31;4964915;28;20046;-70
2023/07/22 03:35:20;;;;;;;3.47;0.93;;;;;;;9.54;58.87;101182.16;4965845;28;20038;-70
2023/07/22 03:37:47;;;;;;;8.80;2.35;;;;;;;9.54;58.90;101183.88;4964545;28;20132;-70
2023/07/22 03:40:30;;;;;;;3.05;1.38;;;;;;;9.30;59.50;101177.69;4969858;28;20380;-71
2023/07/22 03:42:57;;;;;;;5.05;1.20;;;;;;;9.30;59.48;101181.13;4951721;28;20264;-70
2023/07/22 03:45:23;;;;;;;5.75;1.55;;;;;;;9.37;59.06;101180.06;4964221;28;20081;-70
2023/07/22 03:47:56;;;;;;;6.28;1.30;;;;;;;9.27;59.16;101182.97;4968749;28;20138;-66
2023/07/22 03:50:22;;;;;;;4.03;1.00;;;;;;;9.44;58.80;101185.94;4966281;28;20026;-69
2023/07/22 03:52:47;;;;;;;2.72;1.38;;;;;;;9.55;58.38;101177.78;4968935;28;20476;-68
2023/07/22 03:55:12;;;;;;;1.58;0.70;;;;;;;9.62;58.56;101186.28;4967333;28;20527;-69
2023/07/22 03:57:38;;;;;;;6.35;1.55;;;;;;;9.33;58.92;101188.88;4947768;28;20050;-69
2023/07/22 04:00:09;;;;;;;6.35;1.23;;;;;;;9.40;58.59;101185.16;4964831;28;20038;-70
2023/07/22 04:02:41;;;;;;;5.18;1.40;;;;;;;9.45;58.50;101182.41;4950543;28;21826;-73
2023/07/22 04:05:07;;;;;;;3.65;1.10;;;;;;;9.58;58.54;101185.50;4968653;28;20157;-70
2023/07/22 04:07:33;;;;;;;7.07;1.30;;;;;;;9.72;58.05;101185.06;4944672;28;20122;-72
2023/07/22 04:09:59;;;;;;;5.05;1.42;;;;;;;9.67;58.24;101193.06;4964111;28;20175;-70
2023/07/22 04:12:24;;;;;;;2.90;1.60;;;;;;;9.78;58.46;101192.72;4965608;28;20117;-72
2023/07/22 04:14:50;;;;;;;4.57;1.55;;;;;;;9.81;58.25;101184.81;4963397;28;20045;-67
2023/07/22 04:17:16;;;;;;;3.05;1.00;;;;;;;9.88;58.28;101190.69;4967424;28;20081;-70
2023/07/22 04:19:44;;;;;;;6.85;1.40;;;;;;;9.95;57.92;101181.78;4980479;28;20037;-68
2023/07/22 04:22:13;;;;;;;3.92;1.02;;;;;;;9.90;58.61;101186.28;4968099;28;20493;-70
2023/07/22 04:24:38;;;;;;;5.85;1.02;;;;;;;9.94;58.39;101185.28;4976431;28;20026;-71
2023/07/22 04:27:04;;;;;;;2.78;1.00;;;;;;;10.05;58.46;101193.63;4964851;28;20061;-71
2023/07/22 04:29:30;;;;;;;2.67;0.98;;;;;;;10.20;58.19;101187.88;4964519;28;20471;-71
2023/07/22 04:31:59;;;;;;;5.05;1.50;;;;;;;10.39;58.13;101187.25;4963700;28;20034;-71
2023/07/22 04:34:28;;;;;;;5.18;1.15;;;;;;;10.55;57.80;101188.47;4967551;28;20401;-72
2023/07/22 04:36:54;;;;;;;4.30;1.83;;;;;;;10.30;58.11;101192.81;4964861;28;20439;-70
2023/07/22 04:39:20;;;;;;;4.32;0.80;;;;;;;10.58;57.78;101188.34;4965413;28;20034;-69
2023/07/22 04:41:45;;;;;;;6.00;1.60;;;;;;;10.17;57.71;101181.94;4961416;28;20481;-70
2023/07/22 04:44:11;;;;;;;2.00;0.98;;;;;;;10.47;57.46;101189.63;4950773;28;20042;-69
2023/07/22 04:46:36;;;;;;;10.35;1.85;;;;;;;10.54;57.78;101186.75;4950184;28;20031;-73
2023/07/22 04:49:02;;;;;;;6.15;1.10;;;;;;;10.68;57.02;101194.09;4980196;28;20137;-73
2023/07/22 04:51:28;;;;;;;6.18;1.20;;;;;;;10.75;57.36;101189.50;4953287;28;20120;-73
2023/07/22 04:53:54;;;;;;;3.03;1.00;;;;;;;10.93;57.44;101191.50;4952896;28;20551;-73
2023/07/22 04:56:19;;;;;;;6.82;1.70;;;;;;;11.09;57.11;101186.56;4954593;28;20064;-73
2023/07/22 04:58:45;;;;;;;2.53;0.95;;;;;;;11.27;56.58;101198.09;4970161;28;20072;-68
2023/07/22 05:01:10;;;;;;;4.45;1.38;;;;;;;11.27;57.34;101198.09;4968235;28;20084;-68
2023/07/22 05:03:36;;;;;;;3.33;1.00;;;;;;;12.17;55.81;101196.28;4967124;28;20057;-72
2023/07/22 05:06:02;;;;;;;2.80;0.90;;;;;;;13.34;52.90;101188.56;4971034;28;20064;-67
2023/07/22 05:08:27;;;;;;;3.38;0.77;;;;;;;14.19;50.96;101193.25;4969323;28;20054;-67
2023/07/22 05:10:53;;;;;;;6.10;1.40;;;;;;;15.02;46.69;101190.75;4966217;28;20275;-67
2023/07/22 05:13:18;;;;;;;2.75;1.02;;;;;;;15.63;45.21;101197.94;4968891;28;20046;-68
2023/07/22 05:15:44;;;;;;;3.58;1.27;;;;;;;16.90;42.37;101186.16;4967771;28;20035;-69
2023/07/22 05:18:10;;;;;;;2.60;0.90;;;;;;;17.75;41.49;101189.56;4970157;28;20038;-67
2023/07/22 05:20:38;;;;;;;7.40;0.88;;;;;;;18.09;39.90;101182.03;4965427;28;20547;-69
2023/07/22 05:23:03;;;;;;;1.63;0.60;;;;;;;18.34;41.72;101182.13;4972006;28;20642;-69
2023/07/22 05:25:29;;;;;;;2.63;1.02;;;;;;;18.61;40.17;101189.97;4968261;28;20478;-66
2023/07/22 05:27:55;;;;;;;2.40;0.60;;;;;;;19.18;37.30;101183.34;4966979;28;20050;-76
2023/07/22 05:30:20;;;;;;;2.03;0.50;;;;;;;18.26;40.20;101184.44;4948700;28;20070;-67
2023/07/22 05:32:46;;;;;;;3.13;0.90;;;;;;;16.62;42.67;101187.78;4940514;28;20050;-68
2023/07/22 05:35:12;;;;;;;2.97;0.50;;;;;;;15.63;44.86;101192.66;4948807;28;20066;-67
2023/07/22 05:37:37;;;;;;;2.42;0.70;;;;;;;15.37;46.92;101191.47;4938312;28;20045;-68
2023/07/22 05:40:03;;;;;;;1.90;0.88;;;;;;;15.54;45.01;101193.19;4945045;28;20031;-70
2023/07/22 05:42:28;;;;;;;3.28;1.10;;;;;;;14.66;47.28;101194.41;4940746;28;20564;-71
2023/07/22 05:44:55;;;;;;;2.70;0.80;;;;;;;14.91;47.10;101191.31;4941617;28;20034;-69
2023/07/22 05:47:21;;;;;;;2.03;0.80;;;;;;;16.86;45.12;101197.84;4945815;28;20054;-66
2023/07/22 05:49:47;;;;;;;2.58;0.65;;;;;;;19.59;40.82;101192.78;4963794;28;20038;-69
2023/07/22 05:52:13;;;;;;;2.03;0.40;;;;;;;20.19;36.17;101192.75;4970293;28;20044;-69
2023/07/22 05:54:39;;;;;;;2.25;0.73;;;;;;;19.29;38.81;101190.50;4961188;28;20044;-68
2023/07/22 05:57:05;;;;;;;1.98;0.65;;;;;;;18.36;39.53;101190.78;4964551;28;20038;-69
2023/07/22 05:59:31;;;;;;;3.08;0.82;;;;;;;19.42;38.74;101201.91;4967038;28;20107;-68
2023/07/22 06:01:57;;;;;;;1.40;0.45;;;;;;;20.11;38.51;101193.34;4963715;28;20050;-69
2023/07/22 06:04:23;;;;;;;2.03;0.75;;;;;;;19.55;36.37;101188.66;4949899;28;20057;-67
2023/07/22 06:06:48;;;;;;;1.45;0.52;;;;;;;18.01;40.31;101185.22;4965588;28;20038;-68
2023/07/22 06:09:14;;;;;;;2.90;0.95;;;;;;;19.65;38.35;101205.56;4947941;28;20046;-74
2023/07/22 06:11:40;;;;;;;4.15;0.68;;;;;;;19.55;37.09;101201.00;4944255;28;20026;-70
2023/07/22 06:14:06;;;;;;;1.38;0.50;;;;;;;19.56;37.27;101202.75;4946624;28;20030;-69
2023/07/22 06:16:32;;;;;;;1.95;0.43;;;;;;;19.59;37.62;101203.38;4950742;28;20063;-70
2023/07/22 06:18:58;;;;;;;1.30;0.60;;;;;;;18.66;38.71;101208.19;4941960;28;20130;-71
2023/07/22 06:21:23;;;;;;;1.85;0.50;;;;;;;17.97;40.63;101205.72;4941442;28;20098;-73
2023/07/22 06:23:49;;;;;;;4.07;0.80;;;;;;;18.23;41.31;101211.13;4963473;28;20097;-75
2023/07/22 06:26:14;;;;;;;2.13;0.60;;;;;;;18.91;39.84;101211.78;4969009;28;20045;-74
2023/07/22 06:28:40;;;;;;;2.90;0.50;;;;;;;20.18;36.55;101209.66;4967051;28;20084;-69
2023/07/22 06:31:05;;;;;;;0.93;0.30;;;;;;;22.01;35.02;101204.00;4968892;28;20539;-71
2023/07/22 06:33:31;;;;;;;1.20;0.40;;;;;;;20.57;34.21;101210.22;4934960;28;20046;-69
2023/07/22 06:35:58;;;;;;;1.33;0.40;;;;;;;21.92;33.67;101210.09;4947398;28;20133;-71
2023/07/22 06:38:24;;;;;;;4.03;0.80;;;;;;;22.16;33.81;101201.91;4960435;28;20129;-72
2023/07/22 06:40:52;;;;;;;2.92;0.40;;;;;;;20.91;33.11;101200.53;4967985;28;20034;-73
2023/07/22 06:43:17;;;;;;;2.70;0.20;;;;;;;21.95;32.38;101201.84;4967088;28;20038;-70
2023/07/22 06:45:43;;;;;;;0.93;0.50;;;;;;;21.33;32.08;101208.66;4967486;28;20167;-68
2023/07/22 06:48:08;;;;;;;0.70;0.20;;;;;;;21.89;32.42;101203.22;4968366;28;20066;-68
2023/07/22 06:50:34;;;;;;;2.42;0.40;;;;;;;22.00;32.68;101204.97;4962410;28;20112;-67
2023/07/22 06:52:59;;;;;;;1.38;0.38;;;;;;;20.62;33.79;101198.31;4968968;28;20323;-70
2023/07/22 06:55:25;;;;;;;5.43;0.75;;;;;;;19.06;37.30;101197.47;4967903;28;20121;-70
2023/07/22 06:57:50;;;;;;;3.78;0.60;;;;;;;19.52;36.33;101199.44;4966648;28;20308;-71
2023/07/22 07:00:16;;;;;;;1.38;0.30;;;;;;;20.50;34.63;101205.38;4966978;28;20042;-71
2023/07/22 07:02:42;;;;;;;1.35;0.30;;;;;;;21.47;34.00;101202.25;4967386;28;20050;-71
2023/07/22 07:05:07;;;;;;;2.60;0.65;;;;;;;21.17;32.89;101203.75;4968431;28;20046;-71
2023/07/22 07:07:33;;;;;;;1.10;0.30;;;;;;;20.29;35.05;101207.06;4963888;28;20038;-71
2023/07/22 07:10:02;;;;;;;1.40;0.68;;;;;;;18.64;36.69;101194.19;4982328;28;20033;-70
2023/07/22 07:12:28;;;;;;;3.95;0.57;;;;;;;18.75;38.37;101207.53;4966239;28;20089;-70
2023/07/22 07:14:53;;;;;;;2.15;0.50;;;;;;;20.22;36.09;101197.88;4966061;28;20066;-70
2023/07/22 07:17:19;;;;;;;2.75;0.70;;;;;;;19.49;36.57;101211.13;4956436;28;20034;-69
2023/07/22 07:19:45;;;;;;;3.97;0.68;;;;;;;18.08;38.67;101205.00;4961226;28;20160;-70
2023/07/22 07:22:10;;;;;;;3.38;0.40;;;;;;;17.03;41.50;101206.41;4967599;28;20477;-70
2023/07/22 07:24:36;;;;;;;1.80;0.40;;;;;;;16.77;41.96;101207.16;4965195;28;20042;-69
2023/07/22 07:27:02;;;;;;;1.88;0.40;;;;;;;16.69;40.53;101204.97;4941131;28;20448;-70
2023/07/22 07:29:27;;;;;;;1.42;0.50;;;;;;;16.57;42.30;101203.91;4963961;28;20037;-70
2023/07/22 07:31:54;;;;;;;7.03;0.70;;;;;;;16.52;42.75;101220.97;4963641;28;20165;-69
2023/07/22 07:34:20;;;;;;;2.95;0.40;;;;;;;16.90;41.42;101208.09;4963168;28;20109;-70
2023/07/22 07:36:45;;;;;;;3.75;0.63;;;;;;;16.68;41.45;101210.34;4944163;28;20382;-71
2023/07/22 07:39:11;;;;;;;2.95;0.60;;;;;;;17.84;40.24;101200.38;4947942;28;20038;-70
2023/07/22 07:41:37;;;;;;;1.00;0.40;;;;;;;18.98;38.07;101203.28;4944225;28;20129;-70
2023/07/22 07:44:06;;;;;;;2.15;0.32;;;;;;;17.32;39.21;101203.72;4956106;28;20039;-70
2023/07/22 07:46:31;;;;;;;2.92;0.70;;;;;;;17.66;38.89;101204.25;4945823;28;20034;-70
2023/07/22 07:49:00;;;;;;;1.45;0.32;;;;;;;18.50;37.83;101208.38;4940971;28;20049;-71
2023/07/22 07:51:27;;;;;;;5.40;0.47;;;;;;;18.83;39.02;101218.44;4941680;28;20113;-70
2023/07/22 07:53:54;;;;;;;1.65;0.45;;;;;;;19.82;35.96;101225.56;4942362;28;21664;-70
2023/07/22 07:56:20;;;;;;;1.35;0.32;;;;;;;20.93;34.53;101218.03;4957881;28;20493;-70
2023/07/22 07:58:47;;;;;;;1.63;0.68;;;;;;;23.25;30.81;101218.28;4945483;28;20700;-71
2023/07/22 08:01:14;;;;;;;1.35;0.70;;;;;;;23.02;32.25;101220.31;4963053;28;20027;-71
2023/07/22 08:03:43;;;;;;;1.30;0.55;;;;;;;21.54;32.18;101222.94;4949188;28;20042;-69
2023/07/22 08:06:10;;;;;;;1.40;0.40;;;;;;;22.20;33.00;101219.28;4944319;28;20489;-69
2023/07/22 08:08:38;;;;;;;2.22;0.55;;;;;;;20.86;33.13;101206.19;4943431;28;20043;-69
2023/07/22 08:11:05;;;;;;;2.13;0.57;;;;;;;19.71;34.94;101214.88;4945473;28;20034;-69
2023/07/22 08:13:33;;;;;;;1.73;0.70;;;;;;;20.54;35.28;101208.66;4934724;28;20093;-70
2023/07/22 08:16:04;;;;;;;4.72;0.60;;;;;;;20.19;34.80;101206.03;4919965;28;20039;-70
2023/07/22 08:18:33;;;;;;;1.60;0.85;;;;;;;21.24;32.84;101217.38;4944400;28;20166;-69
2023/07/22 08:20:59;;;;;;;6.05;0.50;;;;;;;22.34;29.45;101204.84;4945806;28;20049;-70
2023/07/22 08:23:25;;;;;;;1.70;0.40;;;;;;;21.64;31.66;101209.72;4931758;28;20077;-70
2023/07/22 08:25:50;;;;;;;3.08;0.70;;;;;;;20.31;32.73;101213.94;4953848;28;20393;-70
2023/07/22 08:28:16;;;;;;;6.07;0.73;;;;;;;20.15;33.34;101215.16;4948822;28;20049;-70
2023/07/22 08:30:42;;;;;;;1.27;0.50;;;;;;;21.27;32.47;101215.34;4950288;28;20031;-70
2023/07/22 08:33:09;;;;;;;3.85;1.00;;;;;;;21.66;31.37;101204.28;4955124;28;20068;-71
2023/07/22 08:35:36;;;;;;;1.77;0.90;;;;;;;21.23;32.04;101213.88;4966700;28;20863;-71
2023/07/22 08:38:02;;;;;;;3.53;1.38;;;;;;;21.92;31.56;101216.25;4966083;28;20141;-70
2023/07/22 08:40:33;;;;;;;2.75;1.15;;;;;;;22.79;29.65;101216.03;4967843;28;20523;-71
2023/07/22 08:43:02;;;;;;;2.85;1.27;;;;;;;21.68;32.50;101208.50;4965191;28;20042;-70
2023/07/22 08:45:32;;;;;;;2.20;1.23;;;;;;;21.05;32.60;101210.88;4966571;28;20054;-70
2023/07/22 08:47:58;;;;;;;5.78;2.40;;;;;;;20.24;32.23;101217.16;4963729;28;20124;-70
2023/07/22 08:50:29;;;;;;;5.18;2.10;;;;;;;18.62;36.62;101211.97;4967614;28;20085;-70
2023/07/22 08:52:55;;;;;;;4.20;1.73;;;;;;;19.57;34.75;101204.44;4962431;28;20042;-70
2023/07/22 08:55:21;;;;;;;3.85;2.05;;;;;;;20.31;32.60;101205.13;4968085;28;20045;-70
2023/07/22 08:57:49;;;;;;;4.63;2.17;;;;;;;22.41;31.51;101200.66;4955420;28;20723;-70
2023/07/22 09:00:16;;;;;;;3.20;2.33;;;;;;;23.53;27.73;101196.19;4958841;28;20045;-70
2023/07/22 09:02:42;;;;;;;4.60;2.75;;;;;;;21.69;29.72;101194.25;4948032;28;20141;-70
2023/07/22 09:05:09;;;;;;;5.63;2.17;;;;;;;21.11;31.38;101194.47;4932549;28;20545;-70
2023/07/22 09:07:35;;;;;;;4.20;2.28;;;;;;;20.33;33.46;101198.75;4935132;28;20673;-69
2023/07/22 09:10:04;;;;;;;4.10;2.17;;;;;;;19.88;32.95;101189.75;4929638;28;20038;-69
2023/07/22 09:12:30;;;;;;;4.25;2.13;;;;;;;20.79;32.69;101191.66;4947646;28;20051;-70
2023/07/22 09:14:57;;;;;;;5.45;2.47;;;;;;;20.83;31.35;101179.81;4960588;28;20125;-69
2023/07/22 09:17:22;;;;;;;4.60;2.22;;;;;;;21.53;30.90;101184.00;4943064;28;20045;-70
2023/07/22 09:19:53;;;;;;;6.00;2.97;;;;;;;22.40;29.97;101182.97;4944878;28;20409;-70
2023/07/22 09:22:24;;;;;;;4.25;2.90;;;;;;;19.81;33.99;101192.00;4931223;28;20668;-70
2023/07/22 09:24:50;;;;;;;6.38;3.33;;;;;;;18.00;36.68;101184.34;4941946;28;20079;-69
2023/07/22 09:27:15;;;;;;;4.18;2.78;;;;;;;18.08;37.45;101190.94;4945032;28;20522;-68
2023/07/22 09:29:40;;;;;;;4.97;2.97;;;;;;;18.10;36.73;101181.13;4966943;28;20065;-70
2023/07/22 09:32:07;;;;;;;5.53;2.30;;;;;;;18.18;37.74;101187.56;4963166;28;20046;-70
2023/07/22 09:34:35;;;;;;;6.68;3.95;;;;;;;18.05;37.38;101186.69;4964323;28;20042;-71
2023/07/22 09:37:01;;;;;;;8.02;3.78;;;;;;;17.94;36.95;101184.78;4960804;28;20112;-70
2023/07/22 09:39:26;;;;;;;5.47;2.85;;;;;;;18.16;36.71;101184.19;4968045;28;20038;-70
2023/07/22 09:41:55;;;;;;;7.50;3.13;;;;;;;17.90;37.79;101183.28;4964733;28;20077;-70
2023/07/22 09:44:21;;;;;;;5.22;3.45;;;;;;;17.37;38.75;101179.66;4965271;28;20038;-69
2023/07/22 09:46:48;;;;;;;4.75;2.58;;;;;;;17.57;38.63;101179.25;4965553;28;20052;-70
2023/07/22 09:49:16;;;;;;;6.47;3.75;;;;;;;16.73;39.07;101182.72;4942578;28;20182;-69
2023/07/22 09:51:41;;;;;;;4.43;2.80;;;;;;;16.92;39.84;101178.97;4962385;28;20038;-69
2023/07/22 09:54:07;;;;;;;6.97;3.30;;;;;;;16.46;39.79;101189.66;4943488;28;20406;-69
2023/07/22 09:56:44;;;;;;;6.07;3.17;;;;;;;16.56;41.64;101188.19;4947672;28;20176;-69
2023/07/22 09:59:10;;;;;;;5.32;3.30;;;;;;;16.45;41.81;101196.75;4977718;28;20070;-69
2023/07/22 10:01:39;;;;;;;9.13;4.20;;;;;;;15.33;46.41;101211.03;4963335;28;20034;-70
2023/07/22 10:04:05;;;;;;;7.10;4.53;;;;;;;13.97;51.15;101216.28;4946509;28;20053;-70
2023/07/22 10:06:33;;;;;;;7.97;4.28;;;;;;;13.52;53.02;101211.34;4945544;28;20030;-71
2023/07/22 10:09:07;;;;;;;7.25;3.70;;;;;;;13.84;52.94;101206.34;4966060;28;20041;-70
2023/07/22 10:11:35;;;;;;;8.30;4.18;;;;;;;14.38;53.59;101210.72;4963471;28;20030;-71
2023/07/22 10:14:02;;;;;;;11.57;4.18;;;;;;;14.72;53.16;101210.72;4966924;28;20046;-70
2023/07/22 10:16:28;;;;;;;8.20;4.70;;;;;;;15.31;51.58;101210.28;4963868;28;20042;-70
2023/07/22 10:18:55;;;;;;;9.52;5.22;;;;;;;15.74;51.29;101208.72;4965069;28;20065;-70
2023/07/22 10:21:21;;;;;;;9.27;4.70;;;;;;;16.05;49.73;101198.25;4963722;28;20038;-70
2023/07/22 10:23:48;;;;;;;11.15;5.75;;;;;;;17.07;48.16;101193.88;4963216;28;20042;-69
2023/07/22 10:26:21;;;;;;;7.72;4.25;;;;;;;17.16;47.12;101195.94;4948424;28;20072;-70
2023/07/22 10:28:47;;;;;;;7.18;4.03;;;;;;;17.93;47.39;101190.16;4962260;28;20042;-70
2023/07/22 10:31:14;;;;;;;9.35;3.90;;;;;;;18.34;45.54;101179.47;4965764;28;20064;-70
2023/07/22 10:33:41;;;;;;;7.05;3.75;;;;;;;18.23;45.20;101185.50;4941254;28;20608;-70
2023/07/22 10:36:09;;;;;;;7.63;4.50;;;;;;;17.87;45.97;101186.09;4930429;28;20504;-71
2023/07/22 10:38:35;;;;;;;8.20;3.85;;;;;;;17.02;47.05;101190.66;4941770;28;21356;-70
2023/07/22 10:41:11;;;;;;;9.43;4.53;;;;;;;16.81;48.37;101203.41;4947864;28;20039;-70
2023/07/22 10:43:36;;;;;;;6.63;3.60;;;;;;;16.61;48.21;101207.22;4939215;28;20046;-70
2023/07/22 10:46:10;;;;;;;6.80;4.13;;;;;;;16.76;47.85;101201.03;4949501;28;20329;-71
2023/07/22 10:48:38;;;;;;;9.75;4.93;;;;;;;17.30;48.23;101210.06;4951426;28;20566;-70
2023/07/22 10:51:10;;;;;;;12.80;4.68;;;;;;;17.15;48.11;101206.59;4965976;28;20044;-70
2023/07/22 10:53:43;;;;;;;;;;;;;;;17.18;48.70;101201.97;4959358;28;20046;-70
2023/07/22 10:56:09;;;;;;;7.18;4.03;;;;;;;17.31;49.77;101206.47;4964591;28;20523;-70
2023/07/22 10:58:46;;;;;;;8.55;4.53;;;;;;;17.26;47.38;101195.34;4962125;28;20053;-70
2023/07/22 11:01:30;;;;;;;11.73;4.80;;;;;;;17.19;48.51;101197.53;4965845;28;20525;-70
2023/07/22 11:04:16;;;;;;;7.63;4.40;;;;;;;17.04;48.66;101201.97;4961821;28;20042;-72
2023/07/22 11:06:47;;;;;;;8.35;4.68;;;;;;;17.20;49.46;101193.94;4962475;28;20038;-69
2023/07/22 11:09:34;;;;;;;7.70;4.40;;;;;;;17.22;49.92;101190.28;4929104;28;20045;-70
2023/07/22 11:12:20;;;;;;;6.40;4.63;;;;;;;17.03;49.09;101197.66;4947881;28;20263;-70
2023/07/22 11:14:50;;;;;;;6.95;3.97;;;;;;;16.98;48.28;101200.56;4965219;28;20505;-70
2023/07/22 11:17:17;;;;;;;10.57;5.97;;;;;;;17.16;49.79;101209.13;4959066;28;20038;-70
2023/07/22 11:19:46;;;;;;;12.02;7.38;;;;;;;17.12;49.12;101207.63;4964255;28;20075;-70
2023/07/22 11:22:12;;;;;;;4.78;3.17;;;;;;;17.07;48.25;101206.22;4963074;28;20046;-70
2023/07/22 11:24:37;;;;;;;5.25;3.70;;;;;;;16.80;48.26;101210.47;4955190;28;20034;-70